Observation data for Roaring Springs on 09/13/2017      Previous  Date  Next       Current Mesonet Observations  Soil Data  Daily Summary Page  Observations in Plain Language
KRRS 130505Z 19005KT 21/10 A2993 RMK A01 T02090104  RH  052%=      5-min Rain = 0
KRRS 130510Z 20004KT 20/10 A2993 RMK A01 T02020104  RH  054%=      5-min Rain = 0
KRRS 130515Z 20005KT 20/11 A2993 RMK A01 T02010105  RH  055%=      5-min Rain = 0
KRRS 130520Z 20004KT 20/11 A2993 RMK A01 T01990105  RH  055%=      5-min Rain = 0
KRRS 130525Z 20005KT 20/11 A2993 RMK A01 T02010105  RH  055%=      5-min Rain = 0
KRRS 130530Z 21004KT 20/11 A2993 RMK A01 T01970105  RH  056%=      5-min Rain = 0
KRRS 130535Z 19004KT 20/10 A2993 RMK A01 T01990103  RH  055%=      5-min Rain = 0
KRRS 130540Z 21004KT 20/10 A2993 RMK A01 T01980104  RH  056%=      5-min Rain = 0
KRRS 130545Z 22004KT 19/10 A2993 RMK A01 T01940104  RH  057%=      5-min Rain = 0
KRRS 130550Z 22004KT 19/11 A2993 RMK A01 T01900105  RH  059%=      5-min Rain = 0
KRRS 130555Z 21004KT 19/11 A2993 RMK A01 T01880105  RH  059%=      5-min Rain = 0
KRRS 130600Z 21005KT 19/11 A2993 RMK A01 T01890105  RH  059%=      5-min Rain = 0
KRRS 130605Z 21005KT 19/11 A2992 RMK A01 T01880105  RH  059%=      5-min Rain = 0
KRRS 130610Z 20004KT 19/10 A2992 RMK A01 T01900104  RH  058%=      5-min Rain = 0
KRRS 130615Z 20004KT 19/10 A2992 RMK A01 T01930103  RH  057%=      5-min Rain = 0
KRRS 130620Z 20004KT 19/10 A2992 RMK A01 T01910103  RH  058%=      5-min Rain = 0
KRRS 130625Z 20004KT 20/10 A2992 RMK A01 T01970102  RH  055%=      5-min Rain = 0
KRRS 130630Z 20003KT 20/10 A2992 RMK A01 T01960101  RH  055%=      5-min Rain = 0
KRRS 130635Z 21005KT 20/10 A2992 RMK A01 T01970101  RH  054%=      5-min Rain = 0
KRRS 130640Z 22004KT 19/10 A2992 RMK A01 T01920101  RH  056%=      5-min Rain = 0
KRRS 130645Z 22004KT 19/10 A2992 RMK A01 T01910101  RH  057%=      5-min Rain = 0
KRRS 130650Z 21004KT 19/10 A2992 RMK A01 T01890101  RH  058%=      5-min Rain = 0
KRRS 130655Z 21004KT 19/10 A2992 RMK A01 T01880102  RH  058%=      5-min Rain = 0
KRRS 130700Z 20004KT 19/10 A2992 RMK A01 T01860102  RH  059%=      5-min Rain = 0
KRRS 130705Z 19004KT 19/10 A2991 RMK A01 T01910101  RH  057%=      5-min Rain = 0
KRRS 130710Z 20004KT 19/10 A2991 RMK A01 T01910101  RH  057%=      5-min Rain = 0
KRRS 130715Z 21004KT 19/10 A2991 RMK A01 T01870101  RH  058%=      5-min Rain = 0
KRRS 130720Z 21004KT 18/10 A2991 RMK A01 T01840102  RH  059%=      5-min Rain = 0
KRRS 130725Z 21004KT 18/10 A2991 RMK A01 T01820102  RH  061%=      5-min Rain = 0
KRRS 130730Z 21004KT 18/10 A2991 RMK A01 T01790102  RH  062%=      5-min Rain = 0
KRRS 130735Z 20003KT 18/10 A2991 RMK A01 T01800102  RH  061%=      5-min Rain = 0
KRRS 130740Z 19003KT 18/10 A2991 RMK A01 T01820102  RH  060%=      5-min Rain = 0
KRRS 130745Z 21004KT 18/10 A2991 RMK A01 T01800102  RH  061%=      5-min Rain = 0
KRRS 130750Z 21004KT 18/10 A2991 RMK A01 T01780102  RH  062%=      5-min Rain = 0
KRRS 130755Z 23004KT 18/10 A2991 RMK A01 T01780102  RH  062%=      5-min Rain = 0
KRRS 130800Z 23005KT 18/10 A2991 RMK A01 T01770102  RH  062%=      5-min Rain = 0
KRRS 130805Z 23006KT 18/10 A2991 RMK A01 T01750102  RH  063%=      5-min Rain = 0
KRRS 130810Z 23006KT 17/10 A2991 RMK A01 T01720103  RH  065%=      5-min Rain = 0
KRRS 130815Z 24007KT 17/10 A2991 RMK A01 T01710103  RH  065%=      5-min Rain = 0
KRRS 130820Z 23006KT 17/10 A2991 RMK A01 T01720103  RH  065%=      5-min Rain = 0
KRRS 130825Z 23006KT 17/10 A2991 RMK A01 T01720103  RH  065%=      5-min Rain = 0
KRRS 130830Z 23007KT 17/10 A2991 RMK A01 T01680103  RH  067%=      5-min Rain = 0
KRRS 130835Z 23007KT 16/10 A2991 RMK A01 T01640103  RH  068%=      5-min Rain = 0
KRRS 130840Z 22006KT 16/10 A2991 RMK A01 T01630103  RH  068%=      5-min Rain = 0
KRRS 130845Z 21006KT 16/10 A2991 RMK A01 T01640103  RH  068%=      5-min Rain = 0
KRRS 130850Z 21007KT 16/10 A2991 RMK A01 T01620102  RH  069%=      5-min Rain = 0
KRRS 130855Z 22007KT 16/10 A2991 RMK A01 T01610102  RH  069%=      5-min Rain = 0
KRRS 130900Z 21008KT 16/10 A299 RMK A01 T01630102  RH  068%=      5-min Rain = 0
KRRS 130905Z 21008KT 16/10 A299 RMK A01 T01640102  RH  068%=      5-min Rain = 0
KRRS 130910Z 21008KT 16/10 A299 RMK A01 T01630102  RH  068%=      5-min Rain = 0
KRRS 130915Z 20007KT 16/10 A299 RMK A01 T01640103  RH  068%=      5-min Rain = 0
KRRS 130920Z 21007KT 16/10 A299 RMK A01 T01630102  RH  068%=      5-min Rain = 0
KRRS 130925Z 22008KT 16/10 A299 RMK A01 T01610101  RH  069%=      5-min Rain = 0
KRRS 130930Z 23008KT 17/10 A299 RMK A01 T01660101  RH  067%=      5-min Rain = 0
KRRS 130935Z 23007KT 17/10 A299 RMK A01 T01670101  RH  066%=      5-min Rain = 0
KRRS 130940Z 23007KT 17/10 A299 RMK A01 T01660101  RH  066%=      5-min Rain = 0
KRRS 130945Z 23008KT 17/10 A2991 RMK A01 T01660100  RH  066%=      5-min Rain = 0
KRRS 130950Z 24008KT 17/10 A2991 RMK A01 T01680100  RH  065%=      5-min Rain = 0
KRRS 130955Z 24007KT 17/10 A2991 RMK A01 T01740100  RH  063%=      5-min Rain = 0
KRRS 131000Z 22007KT 18/10 A2991 RMK A01 T01780100  RH  061%=      5-min Rain = 0
KRRS 131005Z 20007KT 18/10 A299 RMK A01 T01770100  RH  062%=      5-min Rain = 0
KRRS 131010Z 20007KT 17/10 A299 RMK A01 T01740101  RH  063%=      5-min Rain = 0
KRRS 131015Z 22008KT 17/10 A2991 RMK A01 T01680100  RH  065%=      5-min Rain = 0
KRRS 131020Z 23008KT 17/10 A299 RMK A01 T01670100  RH  065%=      5-min Rain = 0
KRRS 131025Z 22007KT 17/10 A299 RMK A01 T01670100  RH  066%=      5-min Rain = 0
KRRS 131030Z 21007KT 17/10 A299 RMK A01 T01650100  RH  066%=      5-min Rain = 0
KRRS 131035Z 20007KT 16/10 A299 RMK A01 T01640100  RH  067%=      5-min Rain = 0
KRRS 131040Z 19006KT 17/10 A299 RMK A01 T01650100  RH  066%=      5-min Rain = 0
KRRS 131045Z 19005KT 17/10 A299 RMK A01 T01680100  RH  065%=      5-min Rain = 0
KRRS 131050Z 18005KT 17/10 A299 RMK A01 T01650099  RH  066%=      5-min Rain = 0
KRRS 131055Z 18004KT 16/10 A299 RMK A01 T01630099  RH  067%=      5-min Rain = 0
KRRS 131100Z 19004KT 16/10 A299 RMK A01 T01630100  RH  067%=      5-min Rain = 0
KRRS 131105Z 20004KT 16/10 A299 RMK A01 T01630099  RH  067%=      5-min Rain = 0
KRRS 131110Z 20004KT 16/10 A299 RMK A01 T01620099  RH  067%=      5-min Rain = 0
KRRS 131115Z 21004KT 16/10 A299 RMK A01 T01590099  RH  069%=      5-min Rain = 0
KRRS 131120Z 21003KT 16/10 A299 RMK A01 T01560099  RH  070%=      5-min Rain = 0
KRRS 131125Z 19003KT 16/10 A2989 RMK A01 T01560099  RH  070%=      5-min Rain = 0
KRRS 131130Z 16002KT 16/10 A2989 RMK A01 T01560099  RH  070%=      5-min Rain = 0
KRRS 131135Z 15002KT 16/10 A2989 RMK A01 T01560099  RH  070%=      5-min Rain = 0
KRRS 131140Z 19003KT 16/10 A2989 RMK A01 T01570099  RH  070%=      5-min Rain = 0
KRRS 131145Z 23004KT 16/10 A299 RMK A01 T01550099  RH  070%=      5-min Rain = 0
KRRS 131150Z 24006KT 15/10 A299 RMK A01 T01520099  RH  072%=      5-min Rain = 0
KRRS 131155Z 25005KT 15/10 A299 RMK A01 T01510100  RH  073%=      5-min Rain = 0
KRRS 131200Z 24005KT 15/10 A299 RMK A01 T01490101  RH  074%=      5-min Rain = 0
KRRS 131205Z 23005KT 15/10 A299 RMK A01 T01470101  RH  075%=      5-min Rain = 0
KRRS 131210Z 20003KT 15/10 A299 RMK A01 T01490101  RH  074%=      5-min Rain = 0
KRRS 131215Z 22005KT 15/10 A299 RMK A01 T01530101  RH  072%=      5-min Rain = 0
KRRS 131220Z 22006KT 15/10 A299 RMK A01 T01480100  RH  074%=      5-min Rain = 0
KRRS 131225Z 24007KT 15/10 A299 RMK A01 T01470100  RH  075%=      5-min Rain = 0
KRRS 131230Z 24006KT 15/10 A299 RMK A01 T01480101  RH  075%=      5-min Rain = 0
KRRS 131235Z 23006KT 15/10 A299 RMK A01 T01490101  RH  074%=      5-min Rain = 0
KRRS 131240Z 23006KT 15/10 A299 RMK A01 T01500101  RH  074%=      5-min Rain = 0
KRRS 131245Z 25006KT 15/10 A2991 RMK A01 T01500102  RH  074%=      5-min Rain = 0
KRRS 131250Z 23006KT 15/10 A299 RMK A01 T01530102  RH  073%=      5-min Rain = 0
KRRS 131255Z 22006KT 15/10 A299 RMK A01 T01540104  RH  073%=      5-min Rain = 0
KRRS 131300Z 23007KT 16/10 A2991 RMK A01 T01560104  RH  072%=      5-min Rain = 0
KRRS 131305Z 24006KT 16/11 A2991 RMK A01 T01630105  RH  070%=      5-min Rain = 0
KRRS 131310Z 23006KT 17/11 A2991 RMK A01 T01680107  RH  068%=      5-min Rain = 0
KRRS 131315Z 23006KT 17/11 A2991 RMK A01 T01700109  RH  069%=      5-min Rain = 0
KRRS 131320Z 24005KT 17/11 A2992 RMK A01 T01730110  RH  068%=      5-min Rain = 0
KRRS 131325Z 22005KT 18/11 A2992 RMK A01 T01790111  RH  066%=      5-min Rain = 0
KRRS 131330Z 22005KT 19/11 A2992 RMK A01 T01850113  RH  064%=      5-min Rain = 0
KRRS 131335Z 21004KT 19/11 A2992 RMK A01 T01900113  RH  062%=      5-min Rain = 0
KRRS 131340Z 20004KT 19/11 A2992 RMK A01 T01940112  RH  060%=      5-min Rain = 0
KRRS 131345Z 18003KT 20/11 A2992 RMK A01 T01980111  RH  058%=      5-min Rain = 0
KRRS 131350Z 17003KT 20/11 A2992 RMK A01 T02040109  RH  056%=      5-min Rain = 0
KRRS 131355Z 17003KT 21/11 A2992 RMK A01 T02070110  RH  055%=      5-min Rain = 0
KRRS 131400Z 17003KT 21/11 A2993 RMK A01 T02100110  RH  054%=      5-min Rain = 0
KRRS 131405Z 19004KT 21/11 A2993 RMK A01 T02110109  RH  053%=      5-min Rain = 0
KRRS 131410Z 19004KT 21/11 A2993 RMK A01 T02130111  RH  053%=      5-min Rain = 0
KRRS 131415Z 18004KT 22/11 A2993 RMK A01 T02150110  RH  052%=      5-min Rain = 0
KRRS 131420Z 15003KT 22/11 A2993 RMK A01 T02170110  RH  052%=      5-min Rain = 0
KRRS 131425Z 16004KT 22/11 A2993 RMK A01 T02190110  RH  051%=      5-min Rain = 0
KRRS 131430Z 14004KT 22/11 A2993 RMK A01 T02220113  RH  051%=      5-min Rain = 0
KRRS 131435Z 13004KT 22/11 A2993 RMK A01 T02230113  RH  051%=      5-min Rain = 0
KRRS 131440Z 12005KT 22/11 A2993 RMK A01 T02240113  RH  050%=      5-min Rain = 0
KRRS 131445Z 12005KT 23/12 A2993 RMK A01 T02270115  RH  050%=      5-min Rain = 0
KRRS 131450Z 14005KT 23/11 A2993 RMK A01 T02300113  RH  049%=      5-min Rain = 0
KRRS 131455Z 13005KT 23/12 A2993 RMK A01 T02340116  RH  048%=      5-min Rain = 0
KRRS 131500Z 15005KT 24/11 A2993 RMK A01 T02370114  RH  047%=      5-min Rain = 0
KRRS 131505Z 15004KT 24/11 A2993 RMK A01 T02400112  RH  045%=      5-min Rain = 0
KRRS 131510Z 14003KT 24/11 A2993 RMK A01 T02430114  RH  045%=      5-min Rain = 0
KRRS 131515Z 14003KT 24/11 A2993 RMK A01 T02440113  RH  045%=      5-min Rain = 0
KRRS 131520Z 14003KT 25/11 A2993 RMK A01 T02460112  RH  044%=      5-min Rain = 0
KRRS 131525Z 17004KT 25/11 A2993 RMK A01 T02480114  RH  044%=      5-min Rain = 0
KRRS 131530Z 16003KT 25/11 A2993 RMK A01 T02500114  RH  043%=      5-min Rain = 0
KRRS 131535Z 16004KT 25/11 A2993 RMK A01 T02520113  RH  042%=      5-min Rain = 0
KRRS 131540Z 14004KT 26/12 A2993 RMK A01 T02550116  RH  043%=      5-min Rain = 0
KRRS 131545Z 16004KT 26/12 A2993 RMK A01 T02580115  RH  042%=      5-min Rain = 0
KRRS 131550Z 15006KT 26/11 A2993 RMK A01 T02590113  RH  041%=      5-min Rain = 0
KRRS 131555Z 14006KT 26/11 A2993 RMK A01 T02600114  RH  041%=      5-min Rain = 0
KRRS 131600Z 15006KT 26/12 A2993 RMK A01 T02620115  RH  041%=      5-min Rain = 0
KRRS 131605Z 16005KT 26/11 A2993 RMK A01 T02640112  RH  039%=      5-min Rain = 0
KRRS 131610Z 15004KT 27/11 A2993 RMK A01 T02670111  RH  038%=      5-min Rain = 0
KRRS 131615Z 15006KT 27/11 A2993 RMK A01 T02720113  RH  038%=      5-min Rain = 0
KRRS 131620Z 16005KT 27/11 A2992 RMK A01 T02730110  RH  037%=      5-min Rain = 0
KRRS 131625Z 16006KT 28/11 A2992 RMK A01 T02760108  RH  036%=      5-min Rain = 0
KRRS 131630Z 16006KT 28/11 A2992 RMK A01 T02800111  RH  036%=      5-min Rain = 0
KRRS 131635Z 15007KT 28/11 A2992 RMK A01 T02820109  RH  035%=      5-min Rain = 0
KRRS 131640Z 16007KT 28/11 A2992 RMK A01 T02830107  RH  034%=      5-min Rain = 0
KRRS 131645Z 15007KT 29/11 A2992 RMK A01 T02850106  RH  033%=      5-min Rain = 0
KRRS 131650Z 16007KT 29/11 A2992 RMK A01 T02870106  RH  033%=      5-min Rain = 0
KRRS 131655Z 15007G12KT 29/11 A2991 RMK A01 T02890106  RH  033%=      5-min Rain = 0
KRRS 131700Z 16007KT 29/11 A2991 RMK A01 T02910108  RH  033%=      5-min Rain = 0
KRRS 131705Z 14007KT 29/11 A2991 RMK A01 T02920108  RH  032%=      5-min Rain = 0
KRRS 131710Z 16008KT 30/11 A2991 RMK A01 T02950107  RH  032%=      5-min Rain = 0
KRRS 131715Z 15006KT 30/11 A2991 RMK A01 T02970109  RH  032%=      5-min Rain = 0
KRRS 131720Z 15008G13KT 30/11 A2991 RMK A01 T03010110  RH  031%=      5-min Rain = 0
KRRS 131725Z 14008KT 30/11 A299 RMK A01 T03000108  RH  031%=      5-min Rain = 0
KRRS 131730Z 14008KT 30/11 A299 RMK A01 T03000108  RH  031%=      5-min Rain = 0
KRRS 131735Z 14008KT 30/11 A299 RMK A01 T03010109  RH  031%=      5-min Rain = 0
KRRS 131740Z 14007KT 30/11 A299 RMK A01 T03030111  RH  031%=      5-min Rain = 0
KRRS 131745Z 15008G13KT 31/11 A299 RMK A01 T03050109  RH  030%=      5-min Rain = 0
KRRS 131750Z 15007G12KT 31/11 A299 RMK A01 T03060109  RH  030%=      5-min Rain = 0
KRRS 131755Z 12008KT 31/11 A2989 RMK A01 T03060110  RH  031%=      5-min Rain = 0
KRRS 131800Z 14008G15KT 31/11 A2989 RMK A01 T03090113  RH  031%=      5-min Rain = 0
KRRS 131805Z 14006G12KT 31/11 A2989 RMK A01 T03090111  RH  030%=      5-min Rain = 0
KRRS 131810Z 18006G11KT 31/11 A2989 RMK A01 T03100109  RH  030%=      5-min Rain = 0
KRRS 131815Z 15006KT 31/11 A2989 RMK A01 T03120112  RH  030%=      5-min Rain = 0
KRRS 131820Z 14006G11KT 31/11 A2989 RMK A01 T03130110  RH  029%=      5-min Rain = 0
KRRS 131825Z 18006KT 32/11 A2989 RMK A01 T03150111  RH  029%=      5-min Rain = 0
KRRS 131830Z 15008KT 32/11 A2988 RMK A01 T03160112  RH  029%=      5-min Rain = 0
KRRS 131835Z 16005KT 32/11 A2988 RMK A01 T03180112  RH  029%=      5-min Rain = 0
KRRS 131840Z 16007G13KT 32/11 A2988 RMK A01 T03210112  RH  028%=      5-min Rain = 0
KRRS 131845Z 16005G10KT 32/11 A2988 RMK A01 T03190111  RH  028%=      5-min Rain = 0
KRRS 131850Z 17006KT 32/11 A2988 RMK A01 T03240112  RH  028%=      5-min Rain = 0
KRRS 131855Z 15005G11KT 32/11 A2987 RMK A01 T03220110  RH  028%=      5-min Rain = 0
KRRS 131900Z 17006KT 32/11 A2987 RMK A01 T03200109  RH  028%=      5-min Rain = 0
KRRS 131905Z 14006KT 32/11 A2987 RMK A01 T03210111  RH  028%=      5-min Rain = 0
KRRS 131910Z 15006G12KT 32/11 A2987 RMK A01 T03230110  RH  028%=      5-min Rain = 0
KRRS 131915Z 15007G13KT 32/11 A2987 RMK A01 T03230110  RH  027%=      5-min Rain = 0
KRRS 131920Z 15006KT 33/11 A2986 RMK A01 T03250111  RH  027%=      5-min Rain = 0
KRRS 131925Z 18004KT 33/11 A2986 RMK A01 T03260108  RH  027%=      5-min Rain = 0
KRRS 131930Z 16007KT 33/11 A2986 RMK A01 T03290111  RH  027%=      5-min Rain = 0
KRRS 131935Z 16006KT 33/11 A2985 RMK A01 T03290110  RH  027%=      5-min Rain = 0
KRRS 131940Z 15007KT 33/11 A2985 RMK A01 T03310110  RH  026%=      5-min Rain = 0
KRRS 131945Z 14008G13KT 33/11 A2985 RMK A01 T03310111  RH  027%=      5-min Rain = 0
KRRS 131950Z 14007G12KT 33/11 A2985 RMK A01 T03310110  RH  026%=      5-min Rain = 0
KRRS 131955Z 15005G10KT 33/11 A2984 RMK A01 T03340112  RH  026%=      5-min Rain = 0
KRRS 132000Z 17006G11KT 34/11 A2984 RMK A01 T03360110  RH  026%=      5-min Rain = 0
KRRS 132005Z 18007KT 33/11 A2984 RMK A01 T03340107  RH  025%=      5-min Rain = 0
KRRS 132010Z 14007KT 34/11 A2984 RMK A01 T03360110  RH  026%=      5-min Rain = 0
KRRS 132015Z 14005G10KT 33/11 A2983 RMK A01 T03340110  RH  026%=      5-min Rain = 0
KRRS 132020Z 15004G10KT 34/11 A2983 RMK A01 T03360110  RH  026%=      5-min Rain = 0
KRRS 132025Z 16007G12KT 34/11 A2983 RMK A01 T03380108  RH  025%=      5-min Rain = 0
KRRS 132030Z 15008KT 34/11 A2983 RMK A01 T03370109  RH  025%=      5-min Rain = 0
KRRS 132035Z 15007G12KT 34/11 A2983 RMK A01 T03360109  RH  025%=      5-min Rain = 0
KRRS 132040Z 16006KT 34/11 A2983 RMK A01 T03360107  RH  025%=      5-min Rain = 0
KRRS 132045Z 16006G11KT 34/11 A2983 RMK A01 T03380107  RH  025%=      5-min Rain = 0
KRRS 132050Z 13005G11KT 34/11 A2983 RMK A01 T03380111  RH  026%=      5-min Rain = 0
KRRS 132055Z 13009KT 34/11 A2982 RMK A01 T03400110  RH  025%=      5-min Rain = 0
KRRS 132100Z 12006G12KT 34/11 A2982 RMK A01 T03400113  RH  026%=      5-min Rain = 0
KRRS 132105Z 13006G17KT 34/11 A2982 RMK A01 T03420112  RH  025%=      5-min Rain = 0
KRRS 132110Z 14007G13KT 34/11 A2982 RMK A01 T03400107  RH  025%=      5-min Rain = 0
KRRS 132115Z 15005KT 34/11 A2982 RMK A01 T03400108  RH  025%=      5-min Rain = 0
KRRS 132120Z 15009KT 34/11 A2981 RMK A01 T03430110  RH  025%=      5-min Rain = 0
KRRS 132125Z 15004G9KT 34/11 A2981 RMK A01 T03410106  RH  024%=      5-min Rain = 0
KRRS 132130Z 14006G11KT 34/11 A2981 RMK A01 T03420108  RH  025%=      5-min Rain = 0
KRRS 132135Z 13007G12KT 34/11 A2981 RMK A01 T03420109  RH  025%=      5-min Rain = 0
KRRS 132140Z 17008KT 34/11 A2981 RMK A01 T03420107  RH  024%=      5-min Rain = 0
KRRS 132145Z 11007G13KT 34/11 A2981 RMK A01 T03400105  RH  024%=      5-min Rain = 0
KRRS 132150Z 13008G13KT 34/11 A2981 RMK A01 T03410110  RH  025%=      5-min Rain = 0
KRRS 132155Z 17007KT 34/11 A298 RMK A01 T03420107  RH  024%=      5-min Rain = 0
KRRS 132200Z 13007G15KT 34/11 A298 RMK A01 T03420107  RH  024%=      5-min Rain = 0
KRRS 132205Z 11005KT 34/11 A298 RMK A01 T03410106  RH  024%=      5-min Rain = 0
KRRS 132210Z 14008G14KT 34/11 A298 RMK A01 T03410106  RH  024%=      5-min Rain = 0
KRRS 132215Z 13007KT 34/11 A298 RMK A01 T03410107  RH  024%=      5-min Rain = 0
KRRS 132220Z 16008KT 34/10 A298 RMK A01 T03430104  RH  024%=      5-min Rain = 0
KRRS 132225Z 11006G12KT 34/11 A298 RMK A01 T03410107  RH  025%=      5-min Rain = 0
KRRS 132230Z 12006G12KT 34/11 A298 RMK A01 T03390106  RH  025%=      5-min Rain = 0
KRRS 132235Z 14007G12KT 34/10 A298 RMK A01 T03400104  RH  024%=      5-min Rain = 0
KRRS 132240Z 11007KT 34/11 A298 RMK A01 T03390108  RH  025%=      5-min Rain = 0
KRRS 132245Z 12005KT 34/11 A298 RMK A01 T03400111  RH  025%=      5-min Rain = 0
KRRS 132250Z 15006KT 34/11 A298 RMK A01 T03410109  RH  025%=      5-min Rain = 0
KRRS 132255Z 14008G13KT 34/11 A298 RMK A01 T03400108  RH  025%=      5-min Rain = 0
KRRS 132300Z 13007KT 34/11 A298 RMK A01 T03390106  RH  025%=      5-min Rain = 0
KRRS 132305Z 11008KT 34/11 A298 RMK A01 T03360107  RH  025%=      5-min Rain = 0
KRRS 132310Z 10008KT 33/11 A298 RMK A01 T03340109  RH  026%=      5-min Rain = 0
KRRS 132315Z 14008KT 33/11 A298 RMK A01 T03340108  RH  026%=      5-min Rain = 0
KRRS 132320Z 14011KT 33/10 A298 RMK A01 T03340104  RH  025%=      5-min Rain = 0
KRRS 132325Z 14010KT 33/11 A298 RMK A01 T03320106  RH  026%=      5-min Rain = 0
KRRS 132330Z 14010KT 33/11 A298 RMK A01 T03310106  RH  026%=      5-min Rain = 0
KRRS 132335Z 13011KT 33/11 A298 RMK A01 T03290108  RH  026%=      5-min Rain = 0
KRRS 132340Z 12011KT 32/11 A298 RMK A01 T03240109  RH  027%=      5-min Rain = 0
KRRS 132345Z 12010KT 32/11 A298 RMK A01 T03220110  RH  028%=      5-min Rain = 0
KRRS 132350Z 12010KT 32/11 A298 RMK A01 T03200109  RH  028%=      5-min Rain = 0
KRRS 132355Z 12010KT 32/11 A298 RMK A01 T03180109  RH  028%=      5-min Rain = 0
KRRS 140000Z 12009G15KT 32/11 A298 RMK A01 T03160109  RH  028%=      5-min Rain = 0
KRRS 140005Z 12010KT 31/11 A298 RMK A01 T03140107  RH  028%=      5-min Rain = 0
KRRS 140010Z 12010KT 31/11 A298 RMK A01 T03120108  RH  029%=      5-min Rain = 0
KRRS 140015Z 12009KT 31/11 A298 RMK A01 T03090107  RH  029%=      5-min Rain = 0
KRRS 140020Z 12009KT 31/11 A298 RMK A01 T03080106  RH  029%=      5-min Rain = 0
KRRS 140025Z 12009KT 31/11 A298 RMK A01 T03060106  RH  029%=      5-min Rain = 0
KRRS 140030Z 12008KT 30/11 A298 RMK A01 T03030106  RH  030%=      5-min Rain = 0
KRRS 140035Z 12008KT 30/11 A298 RMK A01 T03000105  RH  030%=      5-min Rain = 0
KRRS 140040Z 12007KT 30/11 A298 RMK A01 T02960105  RH  031%=      5-min Rain = 0
KRRS 140045Z 12007KT 29/11 A298 RMK A01 T02920105  RH  032%=      5-min Rain = 0
KRRS 140050Z 12007KT 29/10 A298 RMK A01 T02890104  RH  032%=      5-min Rain = 0
KRRS 140055Z 12007KT 29/10 A298 RMK A01 T02860104  RH  033%=      5-min Rain = 0
KRRS 140100Z 12007KT 28/10 A2981 RMK A01 T02830103  RH  033%=      5-min Rain = 0
KRRS 140105Z 12007KT 28/10 A2981 RMK A01 T02810102  RH  033%=      5-min Rain = 0
KRRS 140110Z 12008KT 28/10 A2981 RMK A01 T02800101  RH  033%=      5-min Rain = 0
KRRS 140115Z 12008KT 28/10 A2981 RMK A01 T02800101  RH  033%=      5-min Rain = 0
KRRS 140120Z 12008KT 28/10 A2981 RMK A01 T02780101  RH  034%=      5-min Rain = 0
KRRS 140125Z 12008KT 28/10 A2981 RMK A01 T02760100  RH  034%=      5-min Rain = 0
KRRS 140130Z 12008KT 28/10 A2981 RMK A01 T02760100  RH  034%=      5-min Rain = 0
KRRS 140135Z 12008KT 28/10 A2982 RMK A01 T02750100  RH  034%=      5-min Rain = 0
KRRS 140140Z 12009KT 28/10 A2982 RMK A01 T02750099  RH  034%=      5-min Rain = 0
KRRS 140145Z 12008KT 28/10 A2982 RMK A01 T02750099  RH  034%=      5-min Rain = 0
KRRS 140150Z 13008KT 27/10 A2982 RMK A01 T02740099  RH  034%=      5-min Rain = 0
KRRS 140155Z 13008KT 27/10 A2982 RMK A01 T02730099  RH  034%=      5-min Rain = 0
KRRS 140200Z 13009KT 27/10 A2983 RMK A01 T02720099  RH  034%=      5-min Rain = 0
KRRS 140205Z 13008KT 27/10 A2983 RMK A01 T02710099  RH  035%=      5-min Rain = 0
KRRS 140210Z 13008KT 27/10 A2983 RMK A01 T02710099  RH  035%=      5-min Rain = 0
KRRS 140215Z 13008KT 27/10 A2983 RMK A01 T02690100  RH  035%=      5-min Rain = 0
KRRS 140220Z 13008KT 27/10 A2983 RMK A01 T02680100  RH  035%=      5-min Rain = 0
KRRS 140225Z 14007KT 27/10 A2983 RMK A01 T02660101  RH  036%=      5-min Rain = 0
KRRS 140230Z 13008KT 26/10 A2984 RMK A01 T02630101  RH  037%=      5-min Rain = 0
KRRS 140235Z 14007KT 26/10 A2984 RMK A01 T02610101  RH  037%=      5-min Rain = 0
KRRS 140240Z 13008KT 26/10 A2984 RMK A01 T02600102  RH  038%=      5-min Rain = 0
KRRS 140245Z 13008KT 26/10 A2984 RMK A01 T02600102  RH  038%=      5-min Rain = 0
KRRS 140250Z 13008KT 26/10 A2984 RMK A01 T02600102  RH  038%=      5-min Rain = 0
KRRS 140255Z 13008KT 26/10 A2984 RMK A01 T02590102  RH  038%=      5-min Rain = 0
KRRS 140300Z 14008G13KT 26/10 A2984 RMK A01 T02600102  RH  038%=      5-min Rain = 0
KRRS 140305Z 14008KT 26/10 A2985 RMK A01 T02580103  RH  038%=      5-min Rain = 0
KRRS 140310Z 14008KT 26/10 A2985 RMK A01 T02560103  RH  039%=      5-min Rain = 0
KRRS 140315Z 15008KT 26/10 A2985 RMK A01 T02550102  RH  039%=      5-min Rain = 0
KRRS 140320Z 15007KT 25/10 A2985 RMK A01 T02530103  RH  039%=      5-min Rain = 0
KRRS 140325Z 15008KT 25/10 A2985 RMK A01 T02530103  RH  039%=      5-min Rain = 0
KRRS 140330Z 14007KT 25/10 A2985 RMK A01 T02510103  RH  040%=      5-min Rain = 0
KRRS 140335Z 15007KT 25/10 A2985 RMK A01 T02500103  RH  040%=      5-min Rain = 0
KRRS 140340Z 15007KT 25/10 A2985 RMK A01 T02480103  RH  041%=      5-min Rain = 0
KRRS 140345Z 15006KT 25/10 A2985 RMK A01 T02460103  RH  041%=      5-min Rain = 0
KRRS 140350Z 16006KT 24/10 A2985 RMK A01 T02430104  RH  042%=      5-min Rain = 0
KRRS 140355Z 16006KT 24/11 A2985 RMK A01 T02390105  RH  044%=      5-min Rain = 0
KRRS 140400Z 17006KT 24/11 A2985 RMK A01 T02350106  RH  045%=      5-min Rain = 0
KRRS 140405Z 17006KT 23/11 A2985 RMK A01 T02310107  RH  046%=      5-min Rain = 0
KRRS 140410Z 17006KT 23/11 A2985 RMK A01 T02300107  RH  046%=      5-min Rain = 0
KRRS 140415Z 16006KT 23/11 A2985 RMK A01 T02320105  RH  045%=      5-min Rain = 0
KRRS 140420Z 16006KT 23/10 A2985 RMK A01 T02340104  RH  045%=      5-min Rain = 0
KRRS 140425Z 16006KT 24/10 A2985 RMK A01 T02350104  RH  044%=      5-min Rain = 0
KRRS 140430Z 16006KT 23/10 A2985 RMK A01 T02340104  RH  044%=      5-min Rain = 0
KRRS 140435Z 17005KT 23/10 A2985 RMK A01 T02320104  RH  045%=      5-min Rain = 0
KRRS 140440Z 17005KT 23/11 A2986 RMK A01 T02280105  RH  046%=      5-min Rain = 0
KRRS 140445Z 18006KT 23/11 A2986 RMK A01 T02270105  RH  047%=      5-min Rain = 0
KRRS 140450Z 18006KT 23/10 A2986 RMK A01 T02270104  RH  047%=      5-min Rain = 0
KRRS 140455Z 18006KT 23/11 A2986 RMK A01 T02250105  RH  047%=      5-min Rain = 0
KRRS 140500Z 18006KT 22/10 A2986 RMK A01 T02230104  RH  048%=      5-min Rain = 0

Page generated in 0.04 seconds.